createdAt,value
2023-02-19T00:02:08.379Z,5.65
2023-02-19T00:04:35.222Z,5.30
2023-02-19T00:07:02.121Z,5.60
2023-02-19T00:09:29.061Z,5.70
2023-02-19T00:11:55.953Z,4.90
2023-02-19T00:14:22.870Z,4.93
2023-02-19T00:16:49.858Z,4.60
2023-02-19T00:19:19.831Z,4.47
2023-02-19T00:21:47.607Z,4.70
2023-02-19T00:24:15.380Z,4.55
2023-02-19T00:26:43.488Z,5.15
2023-02-19T00:29:14.336Z,5.95
2023-02-19T00:31:42.531Z,5.32
2023-02-19T00:34:10.552Z,5.22
2023-02-19T00:36:39.520Z,4.82
2023-02-19T00:39:08.685Z,4.63
2023-02-19T00:41:35.531Z,4.93
2023-02-19T00:44:06.504Z,5.25
2023-02-19T00:46:39.849Z,5.00
2023-02-19T00:49:08.681Z,5.10
2023-02-19T00:51:38.135Z,4.50
2023-02-19T00:54:05.980Z,5.07
2023-02-19T00:56:33.548Z,4.72
2023-02-19T00:59:01.466Z,4.70
2023-02-19T01:01:28.291Z,4.80
2023-02-19T01:03:55.747Z,4.70
2023-02-19T01:06:23.411Z,4.22
2023-02-19T01:08:50.721Z,4.53
2023-02-19T01:11:18.692Z,4.85
2023-02-19T01:13:45.668Z,4.47
2023-02-19T01:16:15.454Z,4.25
2023-02-19T01:18:42.856Z,5.00
2023-02-19T01:21:14.778Z,4.78
2023-02-19T01:23:42.248Z,4.97
2023-02-19T01:26:12.925Z,4.93
2023-02-19T01:28:40.090Z,4.57
2023-02-19T01:31:11.212Z,5.22
2023-02-19T01:33:38.356Z,5.00
2023-02-19T01:36:07.291Z,4.25
2023-02-19T01:38:34.218Z,5.22
2023-02-19T01:41:04.135Z,4.95
2023-02-19T01:43:54.800Z,4.95
2023-02-19T01:46:21.790Z,4.43
2023-02-19T01:48:48.660Z,4.70
2023-02-19T01:51:19.695Z,4.45
2023-02-19T01:53:53.335Z,4.85
2023-02-19T01:56:21.938Z,5.20
2023-02-19T01:58:49.387Z,4.65
2023-02-19T02:01:16.292Z,4.78
2023-02-19T02:03:45.578Z,6.15
2023-02-19T02:06:30.358Z,6.10
2023-02-19T02:09:17.911Z,7.07
2023-02-19T02:11:49.554Z,5.72
2023-02-19T02:14:25.732Z,6.78
2023-02-19T02:17:21.264Z,5.43
2023-02-19T02:20:26.320Z,5.40
2023-02-19T02:23:30.369Z,5.53
2023-02-19T02:26:24.342Z,4.90
2023-02-19T02:29:04.035Z,4.75
2023-02-19T02:31:39.655Z,5.13
2023-02-19T02:34:14.421Z,4.60
2023-02-19T02:36:44.878Z,4.55
2023-02-19T02:39:19.935Z,4.57
2023-02-19T02:42:15.638Z,4.40
2023-02-19T02:45:20.521Z,4.53
2023-02-19T02:47:56.600Z,4.25
2023-02-19T02:50:34.394Z,4.55
2023-02-19T02:53:24.267Z,4.85
2023-02-19T02:55:53.482Z,4.68
2023-02-19T02:58:24.916Z,5.00
2023-02-19T03:01:18.394Z,5.43
2023-02-19T03:03:48.211Z,5.05
2023-02-19T03:06:19.986Z,5.60
2023-02-19T03:08:55.025Z,5.65
2023-02-19T03:11:40.471Z,5.60
2023-02-19T03:14:29.860Z,8.00
2023-02-19T03:17:22.420Z,6.50
2023-02-19T03:19:53.369Z,6.70
2023-02-19T03:22:25.969Z,7.18
2023-02-19T03:25:25.716Z,6.40
2023-02-19T03:27:54.429Z,6.28
2023-02-19T03:30:25.734Z,5.68
2023-02-19T03:32:59.690Z,6.78
2023-02-19T03:35:37.733Z,17.67
2023-02-19T03:38:13.534Z,14.32
2023-02-19T03:41:05.680Z,44.80
2023-02-19T03:43:53.760Z,7.90
2023-02-19T03:46:29.477Z,20.25
2023-02-19T03:49:01.892Z,9.95
2023-02-19T03:51:39.349Z,9.38
2023-02-19T03:54:23.816Z,8.40
2023-02-19T03:56:58.967Z,7.45
2023-02-19T03:59:51.539Z,9.55
2023-02-19T04:02:33.974Z,7.72
2023-02-19T04:05:08.272Z,7.50
2023-02-19T04:07:41.579Z,7.68
2023-02-19T04:10:10.488Z,7.45
2023-02-19T04:12:50.465Z,7.80
2023-02-19T04:15:23.467Z,8.60
2023-02-19T04:18:03.011Z,7.65
2023-02-19T04:20:34.926Z,8.98
2023-02-19T04:23:01.917Z,10.82
2023-02-19T04:25:30.004Z,20.77
2023-02-19T04:27:57.074Z,17.77
2023-02-19T04:30:23.938Z,10.63
2023-02-19T04:32:51.288Z,12.55
2023-02-19T04:35:18.115Z,8.43
2023-02-19T04:37:44.966Z,8.88
2023-02-19T04:40:11.959Z,9.35
2023-02-19T04:42:38.762Z,10.38
2023-02-19T04:45:05.992Z,12.77
2023-02-19T04:47:33.310Z,12.45
2023-02-19T04:50:00.170Z,11.40
2023-02-19T04:52:27.039Z,10.15
2023-02-19T04:54:53.848Z,10.00
2023-02-19T04:57:20.771Z,10.70
2023-02-19T04:59:47.701Z,9.60
2023-02-19T05:02:14.499Z,10.02
2023-02-19T05:04:41.568Z,11.82
2023-02-19T05:07:08.686Z,12.20
2023-02-19T05:09:35.585Z,11.30
2023-02-19T05:12:02.705Z,12.60
2023-02-19T05:14:29.546Z,12.23
2023-02-19T05:16:56.357Z,13.82
2023-02-19T05:19:23.247Z,12.95
2023-02-19T05:21:50.090Z,15.45
2023-02-19T05:24:16.919Z,16.35
2023-02-19T05:26:45.443Z,12.20
2023-02-19T05:29:12.389Z,23.08
2023-02-19T05:31:39.516Z,19.77
2023-02-19T05:34:06.421Z,19.55
2023-02-19T05:36:33.852Z,18.85
2023-02-19T05:39:00.829Z,16.08
2023-02-19T05:41:31.234Z,14.70
2023-02-19T05:44:03.518Z,13.10
2023-02-19T05:46:33.217Z,9.48
2023-02-19T05:49:00.135Z,8.95
2023-02-19T05:51:27.820Z,9.68
2023-02-19T05:53:56.382Z,9.82
2023-02-19T05:56:40.477Z,11.52
2023-02-19T05:59:16.448Z,13.00
2023-02-19T06:01:43.885Z,11.85
2023-02-19T06:04:11.859Z,11.23
2023-02-19T06:06:39.298Z,14.27
2023-02-19T06:09:06.937Z,13.70
2023-02-19T06:11:36.466Z,14.95
2023-02-19T06:14:03.649Z,15.18
2023-02-19T06:16:38.903Z,14.55
2023-02-19T06:19:10.973Z,40.47
2023-02-19T06:21:38.035Z,65.60
2023-02-19T06:24:08.174Z,26.45
2023-02-19T06:26:35.628Z,20.77
2023-02-19T06:29:02.817Z,21.45
2023-02-19T06:31:29.988Z,21.88
2023-02-19T06:33:56.974Z,19.15
2023-02-19T06:36:25.028Z,19.73
2023-02-19T06:38:51.917Z,16.85
2023-02-19T06:41:19.453Z,14.50
2023-02-19T06:43:46.776Z,16.85
2023-02-19T06:46:14.142Z,14.00
2023-02-19T06:48:44.327Z,10.05
2023-02-19T06:51:18.869Z,10.57
2023-02-19T06:53:46.314Z,10.85
2023-02-19T06:56:31.507Z,11.23
2023-02-19T06:59:00.534Z,10.35
2023-02-19T07:01:29.596Z,9.65
2023-02-19T07:03:56.722Z,10.13
2023-02-19T07:06:25.168Z,9.43
2023-02-19T07:08:53.047Z,10.20
2023-02-19T07:11:20.028Z,10.13
2023-02-19T07:13:47.043Z,10.30
2023-02-19T07:16:14.564Z,9.60
2023-02-19T07:18:41.376Z,10.65
2023-02-19T07:21:13.393Z,11.50
2023-02-19T07:23:43.449Z,10.75
2023-02-19T07:26:13.128Z,11.02
2023-02-19T07:28:48.075Z,10.27
2023-02-19T07:31:16.205Z,9.32
2023-02-19T07:33:44.725Z,11.02
2023-02-19T07:36:12.322Z,10.07
2023-02-19T07:38:40.023Z,9.35
2023-02-19T07:41:07.370Z,10.70
2023-02-19T07:43:36.541Z,8.63
2023-02-19T07:46:08.999Z,9.23
2023-02-19T07:48:37.316Z,8.45
2023-02-19T07:51:05.932Z,8.50
2023-02-19T07:53:35.207Z,9.50
2023-02-19T07:56:04.721Z,11.60
2023-02-19T07:58:31.989Z,11.77
2023-02-19T08:01:07.456Z,12.00
2023-02-19T08:03:35.563Z,10.55
2023-02-19T08:06:02.475Z,9.88
2023-02-19T08:08:29.583Z,8.88
2023-02-19T08:11:19.388Z,9.73
2023-02-19T08:16:29.663Z,10.15
2023-02-19T08:19:04.306Z,11.93
2023-02-19T08:21:33.418Z,10.25
2023-02-19T08:24:01.558Z,8.93
2023-02-19T08:26:28.396Z,9.05
2023-02-19T08:28:55.197Z,8.82
2023-02-19T08:31:22.116Z,10.40
2023-02-19T08:33:49.137Z,12.60
2023-02-19T08:36:16.214Z,11.63
2023-02-19T08:38:43.628Z,9.95
2023-02-19T08:41:12.821Z,11.50
2023-02-19T08:43:43.425Z,8.10
2023-02-19T08:46:11.768Z,7.53
2023-02-19T08:48:39.483Z,7.70
2023-02-19T08:51:10.210Z,7.70
2023-02-19T08:53:38.581Z,6.95
2023-02-19T08:56:11.074Z,9.60
2023-02-19T08:58:38.475Z,7.32
2023-02-19T09:01:10.834Z,7.30
2023-02-19T09:03:38.020Z,7.43
2023-02-19T09:06:05.091Z,7.38
2023-02-19T09:08:31.957Z,6.30
2023-02-19T09:11:00.702Z,16.65
2023-02-19T09:13:27.747Z,3.35
2023-02-19T09:15:54.723Z,2.95
2023-02-19T09:18:21.656Z,2.83
2023-02-19T09:20:48.477Z,3.33
2023-02-19T09:23:15.359Z,2.00
2023-02-19T09:25:42.241Z,2.80
2023-02-19T09:28:09.620Z,1.80
2023-02-19T09:30:36.564Z,1.65
2023-02-19T09:33:05.810Z,1.60
2023-02-19T09:35:32.754Z,1.92
2023-02-19T09:38:01.100Z,2.38
2023-02-19T09:40:28.135Z,4.18
2023-02-19T09:42:55.044Z,2.13
2023-02-19T09:45:25.742Z,3.70
2023-02-19T09:47:58.269Z,3.83
2023-02-19T09:50:37.178Z,2.10
2023-02-19T09:53:11.971Z,1.85
2023-02-19T09:55:42.576Z,2.22
2023-02-19T09:58:22.618Z,1.55
2023-02-19T10:00:52.023Z,2.70
2023-02-19T10:03:33.821Z,2.35
2023-02-19T10:06:14.494Z,1.90
2023-02-19T10:08:42.802Z,3.25
2023-02-19T10:11:12.608Z,1.85
2023-02-19T10:13:51.065Z,1.58
2023-02-19T10:16:22.730Z,1.60
2023-02-19T10:18:49.785Z,2.72
2023-02-19T10:21:24.498Z,1.90
2023-02-19T10:23:55.886Z,2.03
2023-02-19T10:26:23.712Z,5.70
2023-02-19T10:28:50.611Z,2.20
2023-02-19T10:31:23.674Z,2.72
2023-02-19T10:33:52.830Z,1.45
2023-02-19T10:36:33.029Z,1.67
2023-02-19T10:39:02.154Z,2.80
2023-02-19T10:41:30.084Z,1.42
2023-02-19T10:44:21.062Z,1.77
2023-02-19T10:46:52.222Z,1.27
2023-02-19T10:49:37.443Z,2.13
2023-02-19T10:52:17.861Z,1.65
2023-02-19T10:54:46.728Z,1.33
2023-02-19T10:57:19.191Z,1.08
2023-02-19T10:59:50.731Z,1.10
2023-02-19T11:02:20.657Z,1.00
2023-02-19T11:05:15.238Z,1.23
2023-02-19T11:08:20.674Z,1.58
2023-02-19T11:10:49.652Z,1.10
2023-02-19T11:13:27.072Z,1.08
2023-02-19T11:15:55.463Z,2.08
2023-02-19T11:18:28.063Z,1.10
2023-02-19T11:20:57.760Z,1.20
2023-02-19T11:23:36.545Z,2.15
2023-02-19T11:26:06.617Z,2.65
2023-02-19T11:28:36.727Z,1.73
2023-02-19T11:31:27.981Z,1.75
2023-02-19T11:33:56.408Z,1.70
2023-02-19T11:36:23.221Z,1.60
2023-02-19T11:38:50.079Z,1.45
2023-02-19T11:41:47.818Z,1.08
2023-02-19T11:44:30.204Z,2.05
2023-02-19T11:47:34.238Z,1.20
2023-02-19T11:50:12.794Z,1.65
2023-02-19T11:52:49.096Z,1.35
2023-02-19T11:55:42.950Z,1.38
2023-02-19T11:58:38.396Z,2.25
2023-02-19T12:01:17.028Z,1.65
2023-02-19T12:04:21.759Z,1.85
2023-02-19T12:06:51.494Z,1.10
2023-02-19T12:09:36.743Z,1.20
2023-02-19T12:12:18.678Z,1.20
2023-02-19T12:15:02.897Z,1.50
2023-02-19T12:18:04.218Z,1.13
2023-02-19T12:20:58.892Z,0.90
2023-02-19T12:23:43.746Z,1.10
2023-02-19T12:26:21.143Z,1.08
2023-02-19T12:29:00.658Z,0.98
2023-02-19T12:31:55.276Z,0.98
2023-02-19T12:34:31.137Z,1.65
2023-02-19T12:37:27.942Z,1.35
2023-02-19T12:40:23.948Z,1.73
2023-02-19T12:42:56.620Z,1.00
2023-02-19T12:45:38.828Z,1.10
2023-02-19T12:48:34.023Z,1.45
2023-02-19T12:51:21.671Z,1.90
2023-02-19T12:54:01.615Z,0.98
2023-02-19T12:56:34.717Z,2.55
2023-02-19T12:59:12.316Z,1.90
2023-02-19T13:01:47.932Z,1.30
2023-02-19T13:04:37.425Z,1.10
2023-02-19T13:07:17.035Z,1.02
2023-02-19T13:10:10.145Z,0.80
2023-02-19T13:12:44.255Z,0.85
2023-02-19T13:15:38.752Z,1.10
2023-02-19T13:18:13.810Z,1.00
2023-02-19T13:20:46.678Z,0.90
2023-02-19T13:23:41.314Z,1.00
2023-02-19T13:26:30.923Z,1.52
2023-02-19T13:31:45.362Z,0.88
2023-02-19T13:34:36.551Z,1.17
2023-02-19T13:37:04.483Z,1.83
2023-02-19T13:39:31.512Z,1.30
2023-02-19T13:41:59.422Z,1.10
2023-02-19T13:44:28.866Z,0.80
2023-02-19T13:46:56.710Z,2.50
2023-02-19T13:49:29.693Z,1.13
2023-02-19T13:52:00.449Z,1.10
2023-02-19T13:54:40.048Z,0.80
2023-02-19T13:57:22.571Z,2.33
2023-02-19T13:59:54.390Z,1.20
2023-02-19T14:02:21.285Z,1.45
2023-02-19T14:04:51.961Z,0.85
2023-02-19T14:07:18.809Z,1.30
2023-02-19T14:09:46.794Z,1.10
2023-02-19T14:12:15.708Z,1.35
2023-02-19T14:14:55.106Z,1.00
2023-02-19T14:17:43.806Z,1.25
2023-02-19T14:20:16.400Z,1.80
2023-02-19T14:23:03.779Z,2.10
2023-02-19T14:25:43.770Z,3.53
2023-02-19T14:28:10.617Z,2.10
2023-02-19T14:30:49.420Z,1.98
2023-02-19T14:33:19.578Z,2.60
2023-02-19T14:35:49.166Z,3.80
2023-02-19T14:38:59.219Z,3.72
2023-02-19T14:41:30.225Z,3.40
2023-02-19T14:44:00.395Z,5.65
2023-02-19T14:46:43.915Z,2.90
2023-02-19T14:49:25.807Z,4.25
2023-02-19T14:52:00.044Z,1.83
2023-02-19T14:54:42.090Z,1.10
2023-02-19T14:57:25.833Z,1.00
2023-02-19T14:59:58.738Z,1.80
2023-02-19T15:02:27.496Z,2.17
2023-02-19T15:04:55.232Z,3.13
2023-02-19T15:07:30.293Z,5.53
2023-02-19T15:10:05.855Z,11.52
2023-02-19T15:12:40.156Z,9.00
2023-02-19T15:15:07.616Z,3.72
2023-02-19T15:17:37.194Z,3.45
2023-02-19T15:20:12.399Z,2.33
2023-02-19T15:22:41.683Z,2.25
2023-02-19T15:25:20.191Z,4.22
2023-02-19T15:27:47.662Z,5.05
2023-02-19T15:30:31.256Z,7.28
2023-02-19T15:33:01.119Z,7.00
2023-02-19T15:35:30.367Z,9.25
2023-02-19T15:37:57.355Z,11.35
2023-02-19T15:40:31.231Z,41.03
2023-02-19T15:43:00.135Z,37.95
2023-02-19T15:45:37.778Z,17.92
2023-02-19T15:48:09.592Z,18.27
2023-02-19T15:53:16.854Z,9.90
2023-02-19T15:56:09.949Z,7.05
2023-02-19T15:58:45.688Z,6.20
2023-02-19T16:01:25.426Z,5.93
2023-02-19T16:03:56.071Z,5.30
2023-02-19T16:06:25.785Z,5.72
2023-02-19T16:08:52.527Z,5.30
2023-02-19T16:11:47.724Z,5.00
2023-02-19T16:14:25.202Z,6.00
2023-02-19T16:17:09.969Z,5.68
2023-02-19T16:19:44.533Z,4.47
2023-02-19T16:22:18.858Z,3.10
2023-02-19T16:24:48.099Z,4.47
2023-02-19T16:27:47.586Z,5.07
2023-02-19T16:30:17.633Z,4.50
2023-02-19T16:32:46.997Z,4.75
2023-02-19T16:35:36.845Z,5.28
2023-02-19T16:40:40.961Z,11.70
2023-02-19T16:43:26.615Z,10.55
2023-02-19T16:45:53.825Z,8.18
2023-02-19T16:48:23.052Z,9.02
2023-02-19T16:50:50.222Z,6.20
2023-02-19T16:53:22.423Z,5.50
2023-02-19T16:55:49.400Z,4.35
2023-02-19T16:58:16.191Z,4.00
2023-02-19T17:00:43.499Z,4.78
2023-02-19T17:03:17.694Z,8.88
2023-02-19T17:05:45.055Z,16.27
2023-02-19T17:08:37.153Z,18.25
2023-02-19T17:11:07.236Z,13.02
2023-02-19T17:13:34.092Z,10.32
2023-02-19T17:16:01.349Z,5.95
2023-02-19T17:18:28.646Z,5.25
2023-02-19T17:21:05.603Z,4.68
2023-02-19T17:23:32.380Z,2.70
2023-02-19T17:25:59.213Z,3.95
2023-02-19T17:28:26.186Z,10.18
2023-02-19T17:30:53.117Z,9.45
2023-02-19T17:33:19.936Z,5.78
2023-02-19T17:35:46.742Z,5.93
2023-02-19T17:38:14.742Z,13.52
2023-02-19T17:40:41.586Z,20.63
2023-02-19T17:43:08.568Z,9.30
2023-02-19T17:45:35.587Z,16.17
2023-02-19T17:48:02.523Z,10.48
2023-02-19T17:50:31.597Z,15.75
2023-02-19T17:52:59.140Z,37.75
2023-02-19T17:55:26.641Z,23.00
2023-02-19T17:57:54.056Z,8.68
2023-02-19T18:00:27.452Z,12.43
2023-02-19T18:02:54.619Z,8.00
2023-02-19T18:05:22.482Z,2.70
2023-02-19T18:07:50.162Z,4.35
2023-02-19T18:10:19.105Z,3.58
2023-02-19T18:12:46.184Z,2.85
2023-02-19T18:15:26.934Z,5.20
2023-02-19T18:17:54.993Z,4.72
2023-02-19T18:20:24.609Z,3.30
2023-02-19T18:22:51.729Z,9.57
2023-02-19T18:25:19.674Z,7.05
2023-02-19T18:27:47.341Z,8.23
2023-02-19T18:30:18.448Z,20.48
2023-02-19T18:32:48.203Z,22.55
2023-02-19T18:35:17.007Z,19.50
2023-02-19T18:37:43.874Z,19.45
2023-02-19T18:40:11.593Z,12.10
2023-02-19T18:42:40.031Z,6.93
2023-02-19T18:45:08.074Z,6.55
2023-02-19T18:47:34.916Z,4.65
2023-02-19T18:50:01.852Z,4.75
2023-02-19T18:52:28.655Z,4.78
2023-02-19T18:54:57.443Z,5.25
2023-02-19T18:57:26.295Z,6.40
2023-02-19T18:59:53.187Z,7.22
2023-02-19T19:02:20.154Z,9.82
2023-02-19T19:04:52.456Z,8.45
2023-02-19T19:07:20.679Z,6.72
2023-02-19T19:09:48.156Z,8.52
2023-02-19T19:12:15.596Z,13.05
2023-02-19T19:14:43.059Z,12.93
2023-02-19T19:17:10.138Z,9.23
2023-02-19T19:19:36.990Z,20.70
2023-02-19T19:22:03.918Z,40.63
2023-02-19T19:24:30.794Z,24.13
2023-02-19T19:26:57.918Z,13.38
2023-02-19T19:29:25.085Z,11.38
2023-02-19T19:31:52.047Z,10.45
2023-02-19T19:34:19.362Z,7.25
2023-02-19T19:36:47.169Z,6.60
2023-02-19T19:39:14.229Z,6.85
2023-02-19T19:41:41.145Z,7.40
2023-02-19T19:44:08.865Z,6.78
2023-02-19T19:46:42.328Z,8.10
2023-02-19T19:49:09.215Z,7.03
2023-02-19T19:51:36.189Z,6.97
2023-02-19T19:54:05.828Z,7.75
2023-02-19T19:56:32.833Z,7.13
2023-02-19T19:58:59.714Z,7.75
2023-02-19T20:01:26.581Z,7.93
2023-02-19T20:03:53.468Z,12.93
2023-02-19T20:06:26.188Z,9.65
2023-02-19T20:08:53.169Z,7.95
2023-02-19T20:11:20.144Z,8.45
2023-02-19T20:13:47.042Z,10.68
2023-02-19T20:16:14.720Z,11.88
2023-02-19T20:18:42.231Z,12.60
2023-02-19T20:21:10.677Z,13.38
2023-02-19T20:23:40.687Z,11.38
2023-02-19T20:26:07.814Z,9.15
2023-02-19T20:28:34.811Z,8.05
2023-02-19T20:31:01.642Z,7.32
2023-02-19T20:33:28.533Z,6.85
2023-02-19T20:35:57.009Z,7.32
2023-02-19T20:38:24.002Z,6.97
2023-02-19T20:40:50.869Z,6.80
2023-02-19T20:43:17.930Z,7.72
2023-02-19T20:45:46.560Z,7.60
2023-02-19T20:48:17.634Z,7.68
2023-02-19T20:50:44.684Z,8.05
2023-02-19T20:53:14.665Z,8.13
2023-02-19T20:55:41.609Z,7.55
2023-02-19T20:58:08.592Z,7.30
2023-02-19T21:00:35.440Z,7.75
2023-02-19T21:03:02.305Z,7.35
2023-02-19T21:05:29.334Z,8.10
2023-02-19T21:07:56.144Z,8.38
2023-02-19T21:10:23.172Z,8.10
2023-02-19T21:12:52.155Z,8.05
2023-02-19T21:15:20.157Z,8.68
2023-02-19T21:17:47.475Z,10.93
2023-02-19T21:20:15.030Z,9.65
2023-02-19T21:22:41.894Z,7.93
2023-02-19T21:25:08.749Z,9.50
2023-02-19T21:27:35.619Z,8.63
2023-02-19T21:30:03.253Z,7.10
2023-02-19T21:32:30.144Z,7.35
2023-02-19T21:34:57.134Z,9.40
2023-02-19T21:37:23.968Z,9.13
2023-02-19T21:39:50.919Z,6.75
2023-02-19T21:42:17.917Z,6.25
2023-02-19T21:44:44.718Z,6.95
2023-02-19T21:47:12.690Z,5.30
2023-02-19T21:49:41.856Z,4.15
2023-02-19T21:52:09.293Z,4.65
2023-02-19T21:54:36.188Z,4.00
2023-02-19T21:57:03.730Z,3.63
2023-02-19T21:59:30.593Z,3.92
2023-02-19T22:01:57.404Z,3.83
2023-02-19T22:04:24.672Z,4.18
2023-02-19T22:06:54.770Z,4.53
2023-02-19T22:09:21.752Z,3.70
2023-02-19T22:11:48.581Z,3.55
2023-02-19T22:14:15.579Z,5.00
2023-02-19T22:16:42.464Z,4.50
2023-02-19T22:19:12.149Z,4.85
2023-02-19T22:21:43.841Z,5.45
2023-02-19T22:24:19.768Z,4.13
2023-02-19T22:26:50.662Z,4.40
2023-02-19T22:29:18.169Z,4.00
2023-02-19T22:31:45.249Z,3.92
2023-02-19T22:34:12.269Z,3.80
2023-02-19T22:36:39.824Z,5.53
2023-02-19T22:39:08.491Z,5.85
2023-02-19T22:41:35.655Z,4.47
2023-02-19T22:44:02.646Z,4.72
2023-02-19T22:46:31.190Z,4.25
2023-02-19T22:48:58.775Z,3.72
2023-02-19T22:51:26.092Z,4.40
2023-02-19T22:53:55.257Z,4.78
2023-02-19T22:56:25.886Z,4.72
2023-02-19T22:58:54.239Z,4.57
2023-02-19T23:01:21.618Z,5.10
2023-02-19T23:03:50.634Z,4.90
2023-02-19T23:06:21.104Z,6.05
2023-02-19T23:08:47.964Z,4.50
2023-02-19T23:11:24.442Z,5.43
2023-02-19T23:13:52.042Z,4.88
2023-02-19T23:16:19.203Z,4.50
2023-02-19T23:18:46.259Z,5.50
2023-02-19T23:21:13.407Z,4.75
2023-02-19T23:23:44.524Z,5.30
2023-02-19T23:26:12.903Z,4.85
2023-02-19T23:28:43.568Z,5.38
2023-02-19T23:31:11.261Z,5.00
2023-02-19T23:33:38.521Z,5.15
2023-02-19T23:36:06.145Z,5.55
2023-02-19T23:38:33.025Z,5.47
2023-02-19T23:41:00.301Z,5.32
2023-02-19T23:43:27.317Z,4.78
2023-02-19T23:45:54.339Z,5.60
2023-02-19T23:48:21.253Z,4.90
2023-02-19T23:50:48.103Z,5.22
2023-02-19T23:53:14.971Z,4.80
2023-02-19T23:55:41.835Z,4.57
2023-02-19T23:58:08.683Z,4.53
